Aérodrome :
LOGIN :

S'inscrire | Disclaimer

   EN    FR    IT 

 










Légende :    VFR   VFR Marginal   IFR   IFR Intensif   IFR Très Intensif
Visi : 
Plafond : 
>= 8 km
>= 3000ft
5 à 8 km
1000 à 3000 ft
1500m à 5 km
500 à 1000 ft
800 à 1500m
200 à 500 ft
< 800m
< 200 ft
Symboles :   Orages  Brouillard  Fortes neiges  Fortes précipitations  Vent > 20 kt
SIGMETs :   Divers  Orages  Givrage  Turbulence  Onde Orograph.  Cendres Volcan.







- Altitude de l'aérodrome : 1768 ft


LEHC - Huesca Pirineos

DERNIER METAR :
  • 281000Z 26010KT 220V310 9999 FEW035 BKN055 21/12 Q1008

METARs EXPIRÉS :
  • 280930Z 23009KT 200V280 9999 FEW030 BKN055 20/13 Q1008
  • 280900Z 24008KT 210V290 9999 FEW012 BKN055 19/13 Q1008
  • 280830Z 24007KT 200V290 9999 FEW012 BKN055 18/14 Q1008
  • 280800Z 25007KT 210V290 9999 FEW006 BKN055 17/15 Q1008
  • 280730Z 25006KT 210V300 9999 SCT006 SCT060 17/15 Q1008

TAF TAF LEHC
Valide du 28 à 09h jusqu'au 29 à 09h UTC


280800Z 2809/2909 27012KT 9999 SCT050 TX23/2814Z TN12/2905Z
TEMPO 2810/2902 27015G25KT
PROB40
TEMPO 2813/2820 3000 TSRA BKN015 FEW050CB
Pas de NOTAMs connus pour ce terrain.



MET'MAP, la Météo Aéronautique d'un coup d'oeil ! - Copyright ORBIFLY Décembre 2007 - Disclaimer

ORBIFLY MET'MAP TEAM :

Programmation & Développement : Alexandra Zaïnal
Conception & Développement : Baudouin d'Aumeries
Co-Programmation & Développement : Marc-Olivier Méhu
Soutien technique & logistique : Manuel Goepfert

Contact : metmap@orbifly.com




SOURCES & CREDITS :

   NOAA